Al Muharraq, Bahrain
Current Conditions -  °F | °C
As of 3:00 AM on Monday 24 Nov 2014 (Local Time) from OBBI Reporting Station
Clear Clear  
Wind Chill: 73°   Ceiling: Unl
Heat Index: 73°   Visibility: 6mi
Dew Point: 64°   Wind: 7mph
Humidity: 73%   Direction: 80°E
Pressure: 29.88"   Gusts: NA
Location:  26.26°N, 50.62°E
Report Text: OBBI 240000Z 08006KT CAVOK 23/18 Q1012 NOSIG
Loading
Personal Weather Stations






























Interactive Weather Map New forecast layout! Learn more

10-Day Weather Forecast

Advertisements
Track Severe Weather on mobile